Hlavní strana
METAR-TAF:

METAR-TAF

Letiště :

Kokčetau, Kazachstán

zeměpisná šířka: 53-19-48N, zeměpisná délka: 069-35-48E, výška: 270 m

Aktuální stav počasí

Zpráva byla vytvořena před 11 minutami, v 08:30 UTC
Bezvětří
Teplota -3°C
Vlhkost vzduchu 100%
Tlak 1020 hPa
Viditelnost 10 km a více
Žádná oblačnost pod 1500 m, nevyskytují se cumulonimby.

METAR: UACK 110830Z 00000MPS CAVOK M03/M03 Q1020 R20/950255 NOSIG RMK QFE741/0988

Čas: 14:41 (08:41 UTC)

Předpověď počasí

Zpráva byla vytvořena před 41 minutami, v 08:00 UTC
Předpověď platná od 11 v 09 UTC do 11 v 18 UTC
Jihojihozápadní vítr 10 kt
Viditelnost 10 km a více
Polojasno ve výšce 1500 ft
Oblačno až skoro zataženo ve výšce 10000 ft
Dočasný
od 11 v 09 UTC do 11 v 12 UTC
vítr z různých směrů 4 kt
Viditelnost: 3100 m
Polojasno ve výšce 700 ft
kouřmo

TAF: UACK 110800Z 1109/1118 21005MPS 9999 SCT015 BKN100 TEMPO 1109/1112 VRB02MPS 3100 BR SCT007

Stav a předpovědi počasí z více než 4 000 letišť (zprávy METAR a TAF).

Červené a žluté tečky na mapě představují dostupné meteorologické stanice.

Když kurzor umístíte na tečku, zobrazí se název stanice.

Pak kliknutím zobrazíte stav a předpověď počasí.

Chcete-li změnit mapu, kliknutím na zelené tlačítko se znaménkem +mapu přiblížíte, kliknutím na zelené tlačítko se znaménkem – mapu oddálíte a kliknutím na zelené šipky přejdete na sousední mapy.


METAR-TAF: